Time;durP1;ratioP1;P1;durP2;ratioP2;P2;SDS_P1;SDS_P2;PMS_P1;PMS_P2;Temp;Humidity;BMP_temperature;BMP_pressure;BME280_temperature;BME280_humidity;BME280_pressure;Samples;Min_cycle;Max_cycle;Signal;HPM_P1;HPM_P2
2023/03/21 05:00:10;;;;;;;7.80;5.53;;;;;;;13.15;64.61;100469.41;5606372;31;79941;-55
2023/03/21 05:03:18;;;;;;;6.62;5.07;;;;;;;13.15;64.61;100469.41;5583522;32;33381;-56
2023/03/21 05:06:22;;;;;;;6.47;5.20;;;;;;;12.67;65.48;100474.22;5583818;31;33647;-55
2023/03/21 05:09:25;;;;;;;5.75;5.10;;;;;;;12.72;78.47;100470.66;5583711;32;33546;-56
2023/03/21 05:12:27;;;;;;;7.15;5.37;;;;;;;12.72;91.66;100476.84;5583735;31;34513;-56
2023/03/21 05:15:30;;;;;;;6.93;5.70;;;;;;;12.69;85.09;100472.03;5583676;31;34263;-56
2023/03/21 05:18:33;;;;;;;9.13;5.37;;;;;;;12.55;68.95;100477.34;5583777;31;34355;-56
2023/03/21 05:21:40;;;;;;;8.60;5.53;;;;;;;12.69;79.36;100486.28;5583784;31;33193;-56
2023/03/21 05:24:48;;;;;;;8.82;5.75;;;;;;;12.49;68.54;100486.56;5582999;31;33431;-56
2023/03/21 05:27:55;;;;;;;8.55;6.07;;;;;;;12.51;67.38;100487.06;5565031;31;33141;-57
2023/03/21 05:30:57;;;;;;;7.78;5.80;;;;;;;12.56;65.91;100481.63;5563918;32;33247;-56
2023/03/21 05:34:00;;;;;;;6.72;5.47;;;;;;;12.68;66.28;100483.88;5563941;32;33491;-56
2023/03/21 05:37:03;;;;;;;9.02;5.60;;;;;;;12.76;65.60;100485.13;5563891;32;34461;-56
2023/03/21 05:40:10;;;;;;;11.55;6.30;;;;;;;12.85;65.02;100496.81;5563948;32;33303;-56
2023/03/21 05:43:12;;;;;;;10.00;6.55;;;;;;;12.80;65.57;100503.06;5562653;32;33325;-56
2023/03/21 05:46:15;;;;;;;8.25;6.53;;;;;;;12.84;65.35;100506.75;5563906;32;33276;-56
2023/03/21 05:49:17;;;;;;;6.72;5.65;;;;;;;12.78;66.16;100513.34;5563683;32;34480;-56
2023/03/21 05:52:20;;;;;;;8.70;6.30;;;;;;;12.78;66.37;100510.66;5563908;32;33517;-56
2023/03/21 05:55:23;;;;;;;8.77;6.47;;;;;;;12.86;65.95;100511.87;5563644;32;33544;-56
2023/03/21 05:58:26;;;;;;;10.35;5.97;;;;;;;12.87;65.29;100506.19;5563280;32;33615;-56
2023/03/21 06:01:29;;;;;;;8.00;5.62;;;;;;;13.04;64.67;100512.94;5563463;32;33508;-56
2023/03/21 06:04:32;;;;;;;8.52;5.93;;;;;;;12.97;65.76;100513.31;5570812;32;33145;-56
2023/03/21 06:07:35;;;;;;;8.02;5.80;;;;;;;13.09;67.67;100513.66;5563655;32;32933;-56
2023/03/21 06:10:38;;;;;;;8.98;5.95;;;;;;;13.18;64.89;100508.41;5554103;32;33116;-56
2023/03/21 06:13:42;;;;;;;8.18;5.95;;;;;;;13.19;65.27;100511.91;5550614;32;33478;-56
2023/03/21 06:16:44;;;;;;;8.65;5.70;;;;;;;13.21;65.18;100513.22;5550221;32;32177;-56
2023/03/21 06:19:47;;;;;;;8.18;5.75;;;;;;;13.40;63.80;100515.88;5550378;32;33496;-56
2023/03/21 06:22:50;;;;;;;8.80;5.45;;;;;;;13.43;68.69;100520.66;5550028;32;33408;-56
2023/03/21 06:25:52;;;;;;;7.07;5.93;;;;;;;13.38;63.84;100510.78;5549480;32;33778;-56
2023/03/21 06:28:55;;;;;;;10.57;6.53;;;;;;;13.44;63.50;100516.88;5549633;32;33355;-56
2023/03/21 06:31:57;;;;;;;7.72;6.07;;;;;;;13.42;63.44;100518.28;5549960;32;34456;-56
2023/03/21 06:34:59;;;;;;;11.70;5.85;;;;;;;13.62;62.15;100520.62;5549822;32;33330;-56
2023/03/21 06:38:02;;;;;;;8.93;6.10;;;;;;;13.62;62.70;100512.53;5550213;32;33237;-56
2023/03/21 06:41:06;;;;;;;6.95;5.87;;;;;;;13.65;62.53;100517.34;5549817;32;32417;-56
2023/03/21 06:44:10;;;;;;;9.13;5.95;;;;;;;13.89;66.46;100516.34;5550030;32;33406;-56
2023/03/21 06:47:15;;;;;;;10.55;6.28;;;;;;;13.74;61.47;100512.03;5549812;32;34560;-56
2023/03/21 06:50:17;;;;;;;8.02;6.22;;;;;;;13.64;62.44;100521.09;5549241;32;33426;-56
2023/03/21 06:53:26;;;;;;;7.43;5.90;;;;;;;13.55;62.76;100518.31;5560413;32;33162;-56
2023/03/21 06:56:31;;;;;;;7.65;6.00;;;;;;;13.66;64.47;100515.44;5565661;31;34539;-56
2023/03/21 06:59:36;;;;;;;9.45;6.28;;;;;;;13.85;64.55;100525.03;5549033;32;33614;-56
2023/03/21 07:02:38;;;;;;;9.07;6.28;;;;;;;13.76;62.91;100524.13;5552681;32;33155;-56
2023/03/21 07:05:42;;;;;;;9.32;6.15;;;;;;;13.76;62.36;100523.31;5569128;32;34468;-56
2023/03/21 07:08:46;;;;;;;7.70;6.37;;;;;;;13.96;70.07;100516.75;5569001;32;34361;-56
2023/03/21 07:11:52;;;;;;;7.85;6.45;;;;;;;14.09;61.45;100524.03;5567683;31;33306;-56
2023/03/21 07:14:54;;;;;;;9.63;7.00;;;;;;;14.00;60.49;100528.53;5567137;32;33950;-57
2023/03/21 07:17:57;;;;;;;9.93;6.75;;;;;;;14.06;60.78;100528.13;5566162;32;33174;-57
2023/03/21 07:20:59;;;;;;;9.32;6.05;;;;;;;14.03;61.58;100530.62;5566877;32;34328;-56
2023/03/21 07:24:02;;;;;;;8.13;6.25;;;;;;;14.05;60.22;100528.44;5568699;31;34355;-56
2023/03/21 07:27:04;;;;;;;7.55;6.10;;;;;;;14.06;60.44;100525.44;5567832;32;34357;-56
2023/03/21 07:30:08;;;;;;;11.32;6.43;;;;;;;14.14;60.58;100526.66;5568035;32;33417;-56
2023/03/21 07:33:11;;;;;;;8.60;6.05;;;;;;;14.29;60.28;100528.22;5568014;32;34324;-56
2023/03/21 07:36:15;;;;;;;7.37;5.80;;;;;;;14.34;59.72;100526.22;5567883;32;34402;-56
2023/03/21 07:39:20;;;;;;;8.60;5.37;;;;;;;14.48;58.90;100531.59;5567904;32;32884;-56
2023/03/21 07:42:23;;;;;;;8.18;5.55;;;;;;;14.57;57.11;100529.81;5567584;32;34547;-56
2023/03/21 07:45:27;;;;;;;6.95;5.40;;;;;;;14.52;56.79;100527.22;5568123;31;33609;-57
2023/03/21 07:48:30;;;;;;;7.93;4.87;;;;;;;14.53;59.09;100528.81;5568543;32;34056;-56
2023/03/21 07:51:36;;;;;;;7.20;5.22;;;;;;;14.68;61.58;100524.19;5566554;32;33700;-56
2023/03/21 07:54:38;;;;;;;8.50;5.45;;;;;;;14.75;62.55;100522.66;5568358;32;33709;-56
2023/03/21 07:57:40;;;;;;;7.00;5.37;;;;;;;14.87;56.55;100535.66;5567946;32;34366;-56
2023/03/21 08:00:43;;;;;;;9.63;5.00;;;;;;;14.72;55.60;100520.59;5567566;32;33895;-56
2023/03/21 08:03:46;;;;;;;8.82;5.10;;;;;;;14.87;61.75;100521.34;5566650;32;34133;-56
2023/03/21 08:06:50;;;;;;;7.50;4.70;;;;;;;14.88;57.38;100520.25;5566324;32;33788;-56
2023/03/21 08:09:53;;;;;;;7.20;4.78;;;;;;;15.00;56.61;100510.50;5565259;32;33641;-56
2023/03/21 08:12:56;;;;;;;6.10;4.43;;;;;;;15.13;56.72;100519.66;5562122;32;33656;-57
2023/03/21 08:15:59;;;;;;;5.57;3.92;;;;;;;15.34;60.14;100519.94;5562679;32;33758;-56
2023/03/21 08:19:02;;;;;;;5.43;3.60;;;;;;;15.34;53.68;100511.03;5564835;32;33769;-55
2023/03/21 08:22:05;;;;;;;5.70;3.37;;;;;;;15.51;50.94;100511.13;5566449;32;34249;-56
2023/03/21 08:25:12;;;;;;;4.22;3.00;;;;;;;15.43;51.00;100512.69;5568157;31;33631;-56
2023/03/21 08:28:14;;;;;;;4.60;2.80;;;;;;;15.51;51.10;100513.84;5566300;32;33585;-55
2023/03/21 08:31:16;;;;;;;5.32;3.50;;;;;;;15.49;49.13;100507.94;5568226;32;33016;-56
2023/03/21 08:34:19;;;;;;;4.25;3.10;;;;;;;15.50;49.69;100501.44;5565610;32;33720;-56
2023/03/21 08:37:21;;;;;;;4.72;3.45;;;;;;;15.64;50.83;100499.44;5567390;32;34282;-56
2023/03/21 08:40:24;;;;;;;7.35;3.92;;;;;;;15.81;49.83;100511.47;5565861;32;34298;-56
2023/03/21 08:43:27;;;;;;;4.53;3.20;;;;;;;15.90;55.57;100515.00;5556225;32;33683;-56
2023/03/21 08:46:30;;;;;;;6.70;3.40;;;;;;;15.90;51.31;100521.22;5548972;32;33698;-56
2023/03/21 08:49:34;;;;;;;4.55;3.10;;;;;;;15.81;50.44;100506.84;5549077;32;34109;-56
2023/03/21 08:52:37;;;;;;;7.12;3.08;;;;;;;15.85;50.26;100507.03;5547037;32;33691;-56
2023/03/21 08:55:39;;;;;;;4.90;3.00;;;;;;;15.92;50.41;100523.59;5547047;32;33795;-56
2023/03/21 08:58:43;;;;;;;4.87;3.10;;;;;;;16.04;50.46;100504.87;5547116;32;35699;-56
2023/03/21 09:01:45;;;;;;;8.20;3.50;;;;;;;15.92;50.30;100505.44;5551863;32;33696;-56
2023/03/21 09:04:51;;;;;;;5.05;3.45;;;;;;;15.89;48.66;100513.41;5556381;32;33575;-55
2023/03/21 09:07:54;;;;;;;5.55;3.25;;;;;;;15.68;49.23;100510.44;5547072;32;33384;-56
2023/03/21 09:10:57;;;;;;;6.05;4.50;;;;;;;15.65;49.33;100519.16;5556945;32;33358;-56
2023/03/21 09:13:59;;;;;;;5.12;3.95;;;;;;;15.73;49.83;100513.03;5550352;32;34508;-56
2023/03/21 09:17:02;;;;;;;4.28;3.30;;;;;;;15.85;49.56;100517.84;5547522;32;34343;-56
2023/03/21 09:20:10;;;;;;;5.32;3.60;;;;;;;16.09;49.23;100512.84;5554472;32;33655;-56
2023/03/21 09:23:13;;;;;;;4.37;3.35;;;;;;;16.08;49.31;100513.16;5549366;32;33624;-56
2023/03/21 09:26:16;;;;;;;3.45;2.62;;;;;;;16.12;57.49;100519.53;5556716;32;33667;-56
2023/03/21 09:29:20;;;;;;;4.40;3.35;;;;;;;16.20;48.72;100516.06;5552240;32;33657;-56
2023/03/21 09:32:22;;;;;;;4.35;3.55;;;;;;;16.06;48.49;100513.47;5561296;32;33941;-56
2023/03/21 09:35:26;;;;;;;4.55;3.17;;;;;;;16.19;50.57;100519.84;5546646;32;34451;-56
2023/03/21 09:38:29;;;;;;;4.72;2.72;;;;;;;16.23;48.51;100518.13;5549831;32;34013;-56
2023/03/21 09:42:13;;;;;;;3.20;2.70;;;;;;;16.30;47.50;100529.28;5555982;32;33553;-57
2023/03/21 09:45:32;;;;;;;3.20;2.70;;;;;;;16.25;46.76;100525.91;5550840;32;33790;-56
2023/03/21 09:48:48;;;;;;;3.35;2.85;;;;;;;16.19;46.89;100517.16;5567127;32;33596;-56
2023/03/21 09:52:04;;;;;;;9.82;3.40;;;;;;;16.08;47.86;100513.16;5555342;32;34385;-55
2023/03/21 09:55:18;;;;;;;6.05;3.90;;;;;;;16.17;46.42;100517.47;5553458;32;33672;-56
2023/03/21 09:58:29;;;;;;;6.82;3.08;;;;;;;16.06;47.57;100508.06;5551167;32;34968;-56
2023/03/21 10:01:40;;;;;;;3.97;2.60;;;;;;;16.06;50.81;100523.47;5564921;32;34269;-56
2023/03/21 10:04:45;;;;;;;5.45;3.10;;;;;;;16.26;50.30;100509.41;5567867;32;33831;-56
2023/03/21 10:08:05;;;;;;;4.00;2.85;;;;;;;16.31;51.08;100508.44;5568587;32;33661;-56
2023/03/21 10:11:11;;;;;;;3.00;2.05;;;;;;;16.34;47.19;100502.41;5569097;32;33600;-55
2023/03/21 10:14:34;;;;;;;3.37;2.13;;;;;;;16.17;45.59;100495.84;5557673;32;33485;-56
2023/03/21 10:17:42;;;;;;;3.30;2.15;;;;;;;16.13;44.79;100496.78;5560173;32;33673;-56
2023/03/21 10:20:44;;;;;;;5.75;2.40;;;;;;;16.18;45.36;100492.00;5548634;32;34200;-55
2023/03/21 10:23:50;;;;;;;3.35;2.22;;;;;;;16.35;46.91;100496.66;5563550;32;34386;-57
2023/03/21 10:26:54;;;;;;;2.92;2.00;;;;;;;16.29;44.25;100497.13;5549804;32;34465;-56
2023/03/21 10:29:59;;;;;;;5.37;2.05;;;;;;;16.28;43.67;100493.63;5563812;32;33950;-55
2023/03/21 10:33:08;;;;;;;3.37;1.92;;;;;;;16.33;43.21;100484.59;5565263;32;34370;-56
2023/03/21 10:36:16;;;;;;;3.70;2.72;;;;;;;16.41;47.56;100486.50;5568467;32;33732;-56
2023/03/21 10:39:40;;;;;;;7.10;2.28;;;;;;;16.55;44.33;100483.63;5567544;32;33189;-56
2023/03/21 10:42:43;;;;;;;9.13;2.08;;;;;;;16.50;43.56;100478.41;5568978;32;33775;-56
2023/03/21 10:45:46;;;;;;;2.62;1.92;;;;;;;16.59;43.58;100480.00;5568196;32;33706;-56
2023/03/21 10:48:53;;;;;;;3.28;1.95;;;;;;;16.74;42.04;100476.00;5568886;32;34328;-56
2023/03/21 10:52:02;;;;;;;1.73;1.58;;;;;;;16.82;41.69;100480.66;5561681;32;34227;-56
2023/03/21 10:55:16;;;;;;;2.45;1.85;;;;;;;16.77;45.24;100469.19;5549539;32;33669;-56
2023/03/21 10:58:23;;;;;;;3.42;2.00;;;;;;;16.61;42.79;100474.25;5558408;32;33760;-56
2023/03/21 11:01:39;;;;;;;4.55;2.20;;;;;;;16.64;41.91;100473.63;5567067;32;33640;-56
2023/03/21 11:04:43;;;;;;;2.95;2.12;;;;;;;16.72;43.77;100470.13;5566834;32;34273;-56
2023/03/21 11:07:45;;;;;;;4.97;2.47;;;;;;;16.76;42.37;100460.28;5568930;32;33653;-56
2023/03/21 11:10:59;;;;;;;4.30;2.70;;;;;;;16.88;42.87;100460.41;5567391;32;33683;-56
2023/03/21 11:14:08;;;;;;;24.02;3.62;;;;;;;16.93;44.76;100445.94;5568030;32;33937;-56
2023/03/21 11:17:16;;;;;;;4.40;3.03;;;;;;;16.86;45.09;100445.62;5565095;32;34360;-56
2023/03/21 11:20:19;;;;;;;4.32;2.90;;;;;;;16.85;47.33;100435.88;5563765;32;34369;-56
2023/03/21 11:23:27;;;;;;;4.30;2.67;;;;;;;16.82;41.45;100444.66;5566244;32;34524;-56
2023/03/21 11:26:35;;;;;;;3.87;2.37;;;;;;;16.64;43.31;100435.72;5568852;32;33928;-56
2023/03/21 11:29:44;;;;;;;5.05;2.55;;;;;;;16.50;41.84;100430.47;5568421;32;33786;-56
2023/03/21 11:32:52;;;;;;;3.20;2.37;;;;;;;16.47;41.49;100433.81;5566827;32;33654;-56
2023/03/21 11:36:21;;;;;;;5.55;2.67;;;;;;;16.35;40.95;100434.44;5567262;32;33769;-56
2023/03/21 11:39:31;;;;;;;4.12;3.00;;;;;;;16.37;42.99;100424.09;5541876;32;33624;-56
2023/03/21 11:42:43;;;;;;;3.87;2.70;;;;;;;16.34;45.92;100423.94;5567365;32;33778;-56
2023/03/21 11:45:57;;;;;;;2.90;2.50;;;;;;;16.34;46.81;100423.94;5554352;32;33547;-56
2023/03/21 11:49:00;;;;;;;4.35;3.03;;;;;;;16.29;41.96;100422.22;5566883;32;33685;-56
2023/03/21 11:52:32;;;;;;;3.62;2.50;;;;;;;16.37;49.04;100413.28;5565535;32;34898;-56
2023/03/21 11:55:57;;;;;;;4.65;3.35;;;;;;;16.41;43.94;100400.69;5568110;32;31906;-56
2023/03/21 11:59:27;;;;;;;4.20;2.33;;;;;;;16.54;44.06;100398.94;5560747;32;34269;-56
2023/03/21 12:02:56;;;;;;;5.35;2.10;;;;;;;16.66;43.39;100401.03;5522589;32;33712;-56
2023/03/21 12:06:02;;;;;;;3.30;2.05;;;;;;;16.62;40.95;100392.75;5567020;32;33625;-56
2023/03/21 12:09:22;;;;;;;3.30;2.28;;;;;;;16.59;40.15;100392.59;5567564;32;33650;-56
2023/03/21 12:12:49;;;;;;;5.87;3.00;;;;;;;16.63;39.95;100388.12;5566699;32;33514;-56
2023/03/21 12:16:14;;;;;;;5.32;2.60;;;;;;;16.96;42.97;100383.00;5562597;32;34439;-56
2023/03/21 12:19:45;;;;;;;3.95;2.67;;;;;;;17.13;42.44;100382.94;5567982;32;34257;-56
2023/03/21 12:23:14;;;;;;;5.50;3.60;;;;;;;17.14;40.44;100378.31;5557146;32;33955;-55
2023/03/21 12:26:23;;;;;;;5.55;3.60;;;;;;;17.25;44.94;100374.16;5556772;31;33744;-56
2023/03/21 12:29:50;;;;;;;6.90;3.60;;;;;;;17.34;41.83;100374.09;5558109;32;33871;-56
2023/03/21 12:33:20;;;;;;;7.30;3.50;;;;;;;17.36;40.50;100380.00;5565750;32;34324;-56
2023/03/21 12:36:33;;;;;;;5.30;3.70;;;;;;;17.34;42.30;100364.03;5566416;32;34262;-56
2023/03/21 12:39:39;;;;;;;4.60;3.92;;;;;;;17.17;42.76;100374.16;5566692;32;32965;-57
2023/03/21 12:43:19;;;;;;;8.77;4.45;;;;;;;17.04;44.13;100371.34;5553144;32;33691;-56
2023/03/21 12:46:40;;;;;;;5.35;4.25;;;;;;;16.98;43.32;100371.84;5555391;32;34295;-56
2023/03/21 12:49:52;;;;;;;5.30;3.85;;;;;;;16.86;43.67;100367.09;5568191;32;33731;-56
2023/03/21 12:53:04;;;;;;;6.45;4.68;;;;;;;16.74;45.68;100369.63;5564886;32;33257;-56
2023/03/21 12:56:12;;;;;;;6.37;4.32;;;;;;;16.74;44.38;100375.06;5565977;32;33750;-56
2023/03/21 12:59:32;;;;;;;5.97;3.70;;;;;;;16.70;46.21;100369.50;5567062;32;33936;-56
2023/03/21 13:03:01;;;;;;;7.10;3.70;;;;;;;16.67;45.75;100372.84;5566799;32;34042;-56
2023/03/21 13:06:08;;;;;;;7.95;4.18;;;;;;;16.62;44.33;100365.69;5556205;32;34401;-56
2023/03/21 13:09:21;;;;;;;7.93;3.78;;;;;;;16.68;44.79;100358.19;5558812;32;33824;-56
2023/03/21 13:12:48;;;;;;;5.75;3.62;;;;;;;16.61;46.22;100349.75;5558876;31;34281;-57
2023/03/21 13:16:16;;;;;;;5.53;3.30;;;;;;;16.71;44.36;100340.50;5559694;32;33790;-56
2023/03/21 13:19:25;;;;;;;4.72;3.30;;;;;;;16.90;43.91;100339.03;5558809;32;33202;-56
2023/03/21 13:22:29;;;;;;;3.90;2.67;;;;;;;17.11;41.88;100325.59;5554624;32;33804;-56
2023/03/21 13:25:37;;;;;;;5.25;2.50;;;;;;;17.11;42.07;100330.22;5567987;31;32434;-55
2023/03/21 13:28:40;;;;;;;4.85;2.60;;;;;;;17.06;42.84;100325.00;5570103;32;34332;-56
2023/03/21 13:31:46;;;;;;;5.30;3.15;;;;;;;16.98;43.77;100331.22;5569647;32;33790;-56
2023/03/21 13:35:11;;;;;;;3.80;2.00;;;;;;;16.89;42.55;100329.34;5553564;32;33731;-56
2023/03/21 13:38:24;;;;;;;3.72;2.55;;;;;;;16.85;40.06;100333.81;5559326;32;33715;-56
2023/03/21 13:41:38;;;;;;;4.03;2.00;;;;;;;16.76;40.94;100329.56;5560604;32;34384;-56
2023/03/21 13:44:47;;;;;;;5.18;2.45;;;;;;;16.77;42.44;100323.00;5561786;32;33880;-56
2023/03/21 13:48:06;;;;;;;4.07;2.90;;;;;;;16.83;42.45;100321.72;5553633;32;33640;-55
2023/03/21 13:51:10;;;;;;;3.45;2.60;;;;;;;16.83;41.90;100324.44;5568771;32;34402;-56
2023/03/21 13:54:12;;;;;;;4.30;2.83;;;;;;;16.79;43.09;100326.19;5557249;32;34390;-56
2023/03/21 13:57:29;;;;;;;4.47;2.42;;;;;;;16.84;43.57;100321.38;5561458;32;33616;-56
2023/03/21 14:00:38;;;;;;;3.55;2.72;;;;;;;16.89;48.53;100312.31;5569588;32;33750;-56
2023/03/21 14:03:44;;;;;;;4.45;2.22;;;;;;;16.95;40.77;100315.63;5562689;32;34437;-56
2023/03/21 14:07:02;;;;;;;2.93;2.20;;;;;;;17.06;41.62;100306.03;5559322;32;34285;-56
2023/03/21 14:10:16;;;;;;;2.65;2.05;;;;;;;17.11;39.07;100303.12;5567056;32;34351;-56
2023/03/21 14:13:21;;;;;;;5.65;3.42;;;;;;;17.13;40.50;100309.03;5569403;32;33952;-56
2023/03/21 14:16:27;;;;;;;5.25;2.60;;;;;;;17.06;39.60;100303.31;5569974;32;33765;-56
2023/03/21 14:19:33;;;;;;;4.97;2.50;;;;;;;17.06;39.57;100295.19;5569019;32;33655;-57
2023/03/21 14:22:37;;;;;;;3.75;2.65;;;;;;;17.10;40.41;100296.91;5569004;32;33735;-56
2023/03/21 14:25:42;;;;;;;3.53;2.30;;;;;;;17.17;41.03;100292.91;5569328;31;33721;-56
2023/03/21 14:28:50;;;;;;;6.20;2.80;;;;;;;17.16;40.37;100286.69;5569143;32;33763;-56
2023/03/21 14:31:55;;;;;;;2.95;2.15;;;;;;;17.13;40.13;100277.31;5569438;32;33743;-56
2023/03/21 14:34:59;;;;;;;3.33;2.15;;;;;;;17.17;40.19;100272.03;5569687;32;34400;-56
2023/03/21 14:38:17;;;;;;;3.55;2.22;;;;;;;17.22;39.12;100271.84;5557257;32;33762;-56
2023/03/21 14:41:25;;;;;;;5.20;2.20;;;;;;;17.22;40.04;100277.28;5549659;32;33198;-56
2023/03/21 14:44:37;;;;;;;4.35;2.20;;;;;;;17.26;39.71;100280.13;5558628;32;33420;-56
2023/03/21 14:47:59;;;;;;;4.30;1.95;;;;;;;17.23;38.80;100276.16;5567621;32;34408;-56
2023/03/21 14:51:08;;;;;;;2.92;1.95;;;;;;;17.16;40.93;100258.81;5568319;32;34494;-55
2023/03/21 14:54:13;;;;;;;4.10;2.58;;;;;;;17.24;37.90;100264.19;5569770;32;33664;-56
2023/03/21 14:57:21;;;;;;;6.20;2.65;;;;;;;17.33;39.38;100269.56;5568436;32;34512;-57
2023/03/21 15:00:27;;;;;;;3.70;2.40;;;;;;;17.24;39.13;100272.31;5569180;32;33292;-56
2023/03/21 15:03:31;;;;;;;2.72;2.15;;;;;;;17.25;39.68;100282.03;5569089;32;33775;-56
2023/03/21 15:06:47;;;;;;;3.47;2.40;;;;;;;17.30;43.28;100276.41;5569557;32;34426;-56
2023/03/21 15:09:55;;;;;;;4.12;2.47;;;;;;;17.31;40.57;100272.56;5569266;32;33704;-56
2023/03/21 15:13:01;;;;;;;4.15;2.40;;;;;;;17.18;41.44;100273.59;5568603;32;33739;-56
2023/03/21 15:16:04;;;;;;;10.77;2.08;;;;;;;17.24;41.54;100271.50;5569830;32;33791;-55
2023/03/21 15:19:15;;;;;;;2.20;1.90;;;;;;;17.34;42.93;100265.72;5568900;32;33885;-56
2023/03/21 15:22:29;;;;;;;3.47;2.20;;;;;;;17.18;37.35;100265.47;5569621;32;34292;-56
2023/03/21 15:25:35;;;;;;;4.32;2.33;;;;;;;17.09;40.73;100267.47;5569341;31;34319;-55
2023/03/21 15:28:38;;;;;;;6.07;3.05;;;;;;;17.17;39.71;100263.13;5567884;32;33421;-57
2023/03/21 15:31:41;;;;;;;3.58;2.62;;;;;;;17.10;39.99;100259.00;5569378;32;33628;-56
2023/03/21 15:34:44;;;;;;;5.32;2.80;;;;;;;16.97;40.33;100256.53;5569530;32;33729;-56
2023/03/21 15:37:55;;;;;;;4.85;3.15;;;;;;;16.86;40.83;100258.81;5569597;32;34214;-56
2023/03/21 15:41:18;;;;;;;7.85;3.65;;;;;;;16.80;42.11;100262.81;5549407;32;34580;-56
2023/03/21 15:44:21;;;;;;;7.22;4.10;;;;;;;16.75;43.23;100260.25;5556473;32;33641;-57
2023/03/21 15:47:49;;;;;;;4.85;3.33;;;;;;;16.73;43.57;100263.28;5569342;32;33712;-55
2023/03/21 15:50:54;;;;;;;6.47;3.83;;;;;;;16.66;46.00;100268.41;5568961;32;33722;-56
2023/03/21 15:53:56;;;;;;;5.57;3.80;;;;;;;16.45;43.71;100271.78;5569489;32;34341;-56
2023/03/21 15:57:14;;;;;;;6.22;3.90;;;;;;;16.39;43.49;100266.84;5568829;32;33677;-55
2023/03/21 16:00:20;;;;;;;4.68;3.60;;;;;;;16.40;42.95;100263.84;5568901;32;33768;-56
2023/03/21 16:03:26;;;;;;;4.53;3.47;;;;;;;16.34;45.54;100262.44;5568910;32;34434;-56
2023/03/21 16:06:35;;;;;;;4.97;3.85;;;;;;;16.36;45.50;100262.91;5569200;32;33633;-56
2023/03/21 16:09:42;;;;;;;7.93;3.80;;;;;;;16.41;44.50;100268.13;5568907;32;33658;-56
2023/03/21 16:12:44;;;;;;;4.97;3.30;;;;;;;16.41;45.61;100262.72;5568770;32;33648;-56
2023/03/21 16:15:46;;;;;;;5.25;4.03;;;;;;;16.41;43.83;100262.72;5569061;32;33676;-56
2023/03/21 16:18:49;;;;;;;5.85;3.67;;;;;;;16.40;45.16;100263.84;5568724;32;33725;-55
2023/03/21 16:21:52;;;;;;;5.93;3.78;;;;;;;16.42;43.57;100269.75;5568860;32;33691;-55
2023/03/21 16:24:54;;;;;;;6.05;3.70;;;;;;;16.27;44.05;100272.16;5569062;32;34293;-56
2023/03/21 16:27:56;;;;;;;5.70;3.42;;;;;;;16.29;43.54;100270.72;5569033;31;34355;-56
2023/03/21 16:30:59;;;;;;;6.05;4.50;;;;;;;16.27;43.91;100281.06;5568171;32;33686;-56
2023/03/21 16:34:02;;;;;;;6.22;3.47;;;;;;;16.25;43.97;100275.16;5568999;32;33703;-56
2023/03/21 16:37:05;;;;;;;6.10;3.62;;;;;;;16.23;44.58;100277.41;5568816;32;33697;-56
2023/03/21 16:40:17;;;;;;;6.43;3.65;;;;;;;16.15;43.98;100275.50;5568569;32;33736;-56
2023/03/21 16:43:19;;;;;;;4.97;3.25;;;;;;;16.14;45.15;100279.31;5568794;32;35026;-55
2023/03/21 16:46:24;;;;;;;4.72;3.58;;;;;;;16.30;53.17;100282.34;5567946;32;34366;-56
2023/03/21 16:49:27;;;;;;;7.82;3.85;;;;;;;16.27;44.87;100280.28;5567171;32;33751;-56
2023/03/21 16:52:29;;;;;;;4.80;3.47;;;;;;;16.29;44.25;100278.84;5568700;32;34409;-56
2023/03/21 16:55:32;;;;;;;7.05;4.35;;;;;;;16.13;45.14;100291.25;5567709;32;33663;-56
2023/03/21 16:58:35;;;;;;;6.25;4.50;;;;;;;16.03;44.22;100294.28;5568053;32;33747;-56
2023/03/21 17:01:39;;;;;;;7.37;3.90;;;;;;;16.04;45.03;100293.16;5567631;32;33819;-56
2023/03/21 17:04:43;;;;;;;4.60;3.92;;;;;;;16.06;45.90;100301.75;5568408;32;33547;-56
2023/03/21 17:07:45;;;;;;;6.72;4.35;;;;;;;16.07;45.85;100296.03;5567181;32;33693;-55
2023/03/21 17:10:48;;;;;;;5.57;3.83;;;;;;;16.04;46.12;100301.28;5568284;32;34388;-56
